createdAt,value
2018-09-13T00:00:58.421Z,7.13
2018-09-13T00:03:27.416Z,7.83
2018-09-13T00:05:56.287Z,6.90
2018-09-13T00:08:24.980Z,7.83
2018-09-13T00:10:53.717Z,7.00
2018-09-13T00:13:22.542Z,6.67
2018-09-13T00:15:51.536Z,7.10
2018-09-13T00:18:20.454Z,7.10
2018-09-13T00:20:49.246Z,7.20
2018-09-13T00:23:18.028Z,7.43
2018-09-13T00:25:46.826Z,6.70
2018-09-13T00:28:15.688Z,7.07
2018-09-13T00:30:44.500Z,7.30
2018-09-13T00:33:13.466Z,6.43
2018-09-13T00:35:42.306Z,6.93
2018-09-13T00:38:11.150Z,7.17
2018-09-13T00:40:40.088Z,7.10
2018-09-13T00:43:08.882Z,7.10
2018-09-13T00:45:37.719Z,7.40
2018-09-13T00:48:06.547Z,7.10
2018-09-13T00:50:35.343Z,7.27
2018-09-13T00:53:04.222Z,7.30
2018-09-13T00:55:32.968Z,7.00
2018-09-13T00:58:01.861Z,7.10
2018-09-13T01:00:30.744Z,6.30
2018-09-13T01:02:59.543Z,7.07
2018-09-13T01:05:28.501Z,7.80
2018-09-13T01:07:57.234Z,7.17
2018-09-13T01:10:26.282Z,7.00
2018-09-13T01:12:55.107Z,6.87
2018-09-13T01:15:24.249Z,6.30
2018-09-13T01:17:53.187Z,6.80
2018-09-13T01:20:21.982Z,7.30
2018-09-13T01:22:50.755Z,7.03
2018-09-13T01:25:19.612Z,7.70
2018-09-13T01:27:48.402Z,7.27
2018-09-13T01:30:17.345Z,7.40
2018-09-13T01:32:46.404Z,7.00
2018-09-13T01:35:15.191Z,7.00
2018-09-13T01:37:43.938Z,6.77
2018-09-13T01:40:12.692Z,6.87
2018-09-13T01:42:41.566Z,7.53
2018-09-13T01:45:10.515Z,6.80
2018-09-13T01:47:39.328Z,7.33
2018-09-13T01:50:08.358Z,8.20
2018-09-13T01:52:39.832Z,8.10
2018-09-13T01:55:08.986Z,7.77
2018-09-13T01:57:37.943Z,7.93
2018-09-13T02:00:07.158Z,7.83
2018-09-13T02:02:36.095Z,7.80
2018-09-13T02:05:05.167Z,7.57
2018-09-13T02:07:34.503Z,8.60
2018-09-13T02:10:03.564Z,8.37
2018-09-13T02:12:32.464Z,8.27
2018-09-13T02:15:01.458Z,8.63
2018-09-13T02:17:30.392Z,7.80
2018-09-13T02:19:59.495Z,7.47
2018-09-13T02:22:28.464Z,7.73
2018-09-13T02:24:57.305Z,7.53
2018-09-13T02:27:26.395Z,7.93
2018-09-13T02:29:55.242Z,9.03
2018-09-13T02:32:24.743Z,8.80
2018-09-13T02:34:53.580Z,8.27
2018-09-13T02:37:22.357Z,8.73
2018-09-13T02:39:51.143Z,8.40
2018-09-13T02:42:19.968Z,8.03
2018-09-13T02:44:48.952Z,8.33
2018-09-13T02:47:17.671Z,8.80
2018-09-13T02:49:46.460Z,9.23
2018-09-13T02:52:15.228Z,9.00
2018-09-13T02:54:43.969Z,7.60
2018-09-13T02:57:12.857Z,7.77
2018-09-13T02:59:41.895Z,8.97
2018-09-13T03:02:10.790Z,9.90
2018-09-13T03:04:39.513Z,8.17
2018-09-13T03:07:08.355Z,8.10
2018-09-13T03:09:37.121Z,8.40
2018-09-13T03:12:07.175Z,7.57
2018-09-13T03:14:36.067Z,7.97
2018-09-13T03:17:09.162Z,7.67
2018-09-13T03:19:37.913Z,7.70
2018-09-13T03:22:08.250Z,8.60
2018-09-13T03:24:37.414Z,8.73
2018-09-13T03:27:06.170Z,8.63
2018-09-13T03:29:34.959Z,7.43
2018-09-13T03:32:03.716Z,7.40
2018-09-13T03:34:32.686Z,8.17
2018-09-13T03:37:01.433Z,8.10
2018-09-13T03:39:30.172Z,7.63
2018-09-13T03:41:58.982Z,8.90
2018-09-13T03:44:27.792Z,9.00
2018-09-13T03:46:56.857Z,8.33
2018-09-13T03:49:25.554Z,7.77
2018-09-13T03:51:54.597Z,8.23
2018-09-13T03:54:23.412Z,7.77
2018-09-13T03:56:52.177Z,8.90
2018-09-13T03:59:21.106Z,8.60
2018-09-13T04:01:49.849Z,8.23
2018-09-13T04:04:18.891Z,8.30
2018-09-13T04:06:47.696Z,8.37
2018-09-13T04:09:16.515Z,8.20
2018-09-13T04:11:45.358Z,8.50
2018-09-13T04:14:14.190Z,8.97
2018-09-13T04:16:42.919Z,9.17
2018-09-13T04:19:11.735Z,8.37
2018-09-13T04:21:40.501Z,9.40
2018-09-13T04:24:09.353Z,9.10
2018-09-13T04:26:38.074Z,9.57
2018-09-13T04:29:06.820Z,8.90
2018-09-13T04:31:35.659Z,9.47
2018-09-13T04:34:04.494Z,9.53
2018-09-13T04:36:33.666Z,8.47
2018-09-13T04:39:02.495Z,9.43
2018-09-13T04:41:31.353Z,9.27
2018-09-13T04:44:00.379Z,9.13
2018-09-13T04:46:29.505Z,10.47
2018-09-13T04:48:58.373Z,11.23
2018-09-13T04:51:27.063Z,10.30
2018-09-13T04:53:55.770Z,11.37
2018-09-13T04:56:24.528Z,10.37
2018-09-13T04:58:53.514Z,10.80
2018-09-13T05:01:23.979Z,10.80
2018-09-13T05:03:53.864Z,11.40
2018-09-13T05:06:24.312Z,10.77
2018-09-13T05:08:53.448Z,12.73
2018-09-13T05:11:22.663Z,11.27
2018-09-13T05:13:51.621Z,10.73
2018-09-13T05:16:20.410Z,11.43
2018-09-13T05:18:49.174Z,10.70
2018-09-13T05:21:17.981Z,10.80
2018-09-13T05:23:46.776Z,9.93
2018-09-13T05:26:16.329Z,11.83
2018-09-13T05:28:45.136Z,10.70
2018-09-13T05:31:13.997Z,11.00
2018-09-13T05:33:42.751Z,10.43
2018-09-13T05:36:11.784Z,10.33
2018-09-13T05:38:40.772Z,10.33
2018-09-13T05:41:09.946Z,9.27
2018-09-13T05:43:38.955Z,10.47
2018-09-13T05:46:08.061Z,10.37
2018-09-13T05:48:37.238Z,10.40
2018-09-13T05:51:06.516Z,9.97
2018-09-13T05:53:35.742Z,10.37
2018-09-13T05:56:04.937Z,10.50
2018-09-13T05:58:33.989Z,10.43
2018-09-13T06:01:03.843Z,10.57
2018-09-13T06:03:32.984Z,9.90
2018-09-13T06:06:02.016Z,9.10
2018-09-13T06:08:31.007Z,9.90
2018-09-13T06:11:00.002Z,11.10
2018-09-13T06:13:30.876Z,8.93
2018-09-13T06:15:59.937Z,9.97
2018-09-13T06:18:28.829Z,9.67
2018-09-13T06:20:57.724Z,10.47
2018-09-13T06:23:27.245Z,9.10
2018-09-13T06:25:56.708Z,9.70
2018-09-13T06:28:25.629Z,10.20
2018-09-13T06:30:55.580Z,9.73
2018-09-13T06:33:24.367Z,10.30
2018-09-13T06:35:53.342Z,9.67
2018-09-13T06:38:22.739Z,10.83
2018-09-13T06:40:51.629Z,11.13
2018-09-13T06:43:20.553Z,9.73
2018-09-13T06:45:49.407Z,10.57
2018-09-13T06:48:18.247Z,10.43
2018-09-13T06:50:47.092Z,10.37
2018-09-13T06:53:15.887Z,10.60
2018-09-13T06:55:45.109Z,10.27
2018-09-13T06:58:13.991Z,10.97
2018-09-13T07:00:43.431Z,10.90
2018-09-13T07:03:12.255Z,11.50
2018-09-13T07:05:41.035Z,11.30
2018-09-13T07:08:09.971Z,10.50
2018-09-13T07:10:39.126Z,12.60
2018-09-13T07:13:08.760Z,16.20
2018-09-13T07:15:38.447Z,14.80
2018-09-13T07:18:10.370Z,19.40
2018-09-13T07:20:39.362Z,20.17
2018-09-13T07:23:08.241Z,18.40
2018-09-13T07:25:37.026Z,18.00
2018-09-13T07:28:05.885Z,17.83
2018-09-13T07:30:34.887Z,19.03
2018-09-13T07:33:03.695Z,18.73
2018-09-13T07:35:32.512Z,16.93
2018-09-13T07:38:01.517Z,16.20
2018-09-13T07:40:30.342Z,15.73
2018-09-13T07:42:59.429Z,14.40
2018-09-13T07:45:28.164Z,12.33
2018-09-13T07:47:57.587Z,10.80
2018-09-13T07:50:26.392Z,13.00
2018-09-13T07:52:55.569Z,10.80
2018-09-13T07:55:24.468Z,10.83
2018-09-13T07:57:53.342Z,12.03
2018-09-13T08:00:22.120Z,10.70
2018-09-13T08:02:51.223Z,11.13
2018-09-13T08:05:20.108Z,9.80
2018-09-13T08:07:48.900Z,9.97
2018-09-13T08:10:17.761Z,8.67
2018-09-13T08:12:46.640Z,8.83
2018-09-13T08:15:15.609Z,9.00
2018-09-13T08:17:44.506Z,9.30
2018-09-13T08:20:13.297Z,8.60
2018-09-13T08:22:42.158Z,8.73
2018-09-13T08:25:10.921Z,8.60
2018-09-13T08:27:39.854Z,7.33
2018-09-13T08:30:08.707Z,6.80
2018-09-13T08:32:37.446Z,7.30
2018-09-13T08:35:06.772Z,6.63
2018-09-13T08:37:35.980Z,5.90
2018-09-13T08:40:04.902Z,5.60
2018-09-13T08:42:33.719Z,5.23
2018-09-13T08:45:02.585Z,6.07
2018-09-13T08:47:31.520Z,5.47
2018-09-13T08:50:00.347Z,5.27
2018-09-13T08:52:29.166Z,6.60
2018-09-13T08:54:58.022Z,5.53
2018-09-13T08:57:29.276Z,5.17
2018-09-13T08:59:59.918Z,4.70
2018-09-13T09:02:30.166Z,4.67
2018-09-13T09:05:00.629Z,4.70
2018-09-13T09:07:29.390Z,5.27
2018-09-13T09:09:58.224Z,4.90
2018-09-13T09:12:27.097Z,4.80
2018-09-13T09:14:55.974Z,4.93
2018-09-13T09:17:25.109Z,5.73
2018-09-13T09:19:53.888Z,4.77
2018-09-13T09:22:23.060Z,4.73
2018-09-13T09:24:52.091Z,4.40
2018-09-13T09:27:21.131Z,4.73
2018-09-13T09:29:50.083Z,4.33
2018-09-13T09:32:18.768Z,3.83
2018-09-13T09:34:47.587Z,4.50
2018-09-13T09:37:16.446Z,5.07
2018-09-13T09:39:45.247Z,4.00
2018-09-13T09:42:14.022Z,3.90
2018-09-13T09:44:43.060Z,5.33
2018-09-13T09:47:11.845Z,4.63
2018-09-13T09:49:41.034Z,4.37
2018-09-13T09:52:09.893Z,4.50
2018-09-13T09:54:38.934Z,4.30
2018-09-13T09:57:07.784Z,4.17
2018-09-13T09:59:36.584Z,4.70
2018-09-13T10:02:10.781Z,5.27
2018-09-13T10:04:39.596Z,4.73
2018-09-13T10:07:08.485Z,4.17
2018-09-13T10:09:37.378Z,4.03
2018-09-13T10:12:06.272Z,5.00
2018-09-13T10:14:35.444Z,5.40
2018-09-13T10:17:09.460Z,4.70
2018-09-13T10:19:43.506Z,4.50
2018-09-13T10:22:17.620Z,5.27
2018-09-13T10:24:51.749Z,4.13
2018-09-13T10:27:25.658Z,4.20
2018-09-13T10:29:59.669Z,4.97
2018-09-13T10:32:33.818Z,4.83
2018-09-13T10:35:08.098Z,5.60
2018-09-13T10:37:42.325Z,5.20
2018-09-13T10:40:16.367Z,5.13
2018-09-13T10:42:50.330Z,5.03
2018-09-13T10:45:25.103Z,5.43
2018-09-13T10:47:59.090Z,4.80
2018-09-13T10:50:31.701Z,5.57
2018-09-13T10:53:04.645Z,4.20
2018-09-13T10:55:34.371Z,4.77
2018-09-13T10:58:03.127Z,4.90
2018-09-13T11:00:32.005Z,4.60
2018-09-13T11:03:01.099Z,5.80
2018-09-13T11:05:30.035Z,5.47
2018-09-13T11:07:58.850Z,5.67
2018-09-13T11:10:27.713Z,4.93
2018-09-13T11:13:03.511Z,5.30
2018-09-13T11:15:34.191Z,4.40
2018-09-13T11:18:04.678Z,5.00
2018-09-13T11:20:34.068Z,4.60
2018-09-13T11:23:03.058Z,5.23
2018-09-13T11:25:32.671Z,4.73
2018-09-13T11:28:01.587Z,4.70
2018-09-13T11:30:30.519Z,5.13
2018-09-13T11:32:59.197Z,4.20
2018-09-13T11:35:28.275Z,4.70
2018-09-13T11:37:57.114Z,5.43
2018-09-13T11:40:26.131Z,4.93
2018-09-13T11:42:54.881Z,5.07
2018-09-13T11:45:23.664Z,5.37
2018-09-13T11:47:52.586Z,5.07
2018-09-13T11:50:21.451Z,5.23
2018-09-13T11:52:50.267Z,5.17
2018-09-13T11:55:19.253Z,5.33
2018-09-13T11:57:48.082Z,4.77
2018-09-13T12:00:17.131Z,4.80
2018-09-13T12:02:46.247Z,5.60
2018-09-13T12:05:15.149Z,5.90
2018-09-13T12:07:43.995Z,5.50
2018-09-13T12:10:12.870Z,5.40
2018-09-13T12:12:41.867Z,6.03
2018-09-13T12:15:11.124Z,5.60
2018-09-13T12:17:41.880Z,4.90
2018-09-13T12:20:11.365Z,5.77
2018-09-13T12:22:40.258Z,5.90
2018-09-13T12:25:11.061Z,5.77
2018-09-13T12:27:41.706Z,6.70
2018-09-13T12:30:12.665Z,5.73
2018-09-13T12:32:43.095Z,5.93
2018-09-13T12:35:12.968Z,7.20
2018-09-13T12:37:41.965Z,6.40
2018-09-13T12:40:11.657Z,5.90
2018-09-13T12:42:41.498Z,6.00
2018-09-13T12:45:10.913Z,5.87
2018-09-13T12:47:40.063Z,5.47
2018-09-13T12:50:10.717Z,6.47
2018-09-13T12:52:41.542Z,6.20
2018-09-13T12:55:12.069Z,5.57
2018-09-13T12:57:42.583Z,5.57
2018-09-13T13:00:13.056Z,5.60
2018-09-13T13:02:41.968Z,5.63
2018-09-13T13:05:10.815Z,6.03
2018-09-13T13:07:39.642Z,6.30
2018-09-13T13:10:08.699Z,6.03
2018-09-13T13:12:37.568Z,5.50
2018-09-13T13:15:06.535Z,5.60
2018-09-13T13:17:35.612Z,5.70
2018-09-13T13:20:04.669Z,6.23
2018-09-13T13:22:33.755Z,5.67
2018-09-13T13:25:02.578Z,6.10
2018-09-13T13:27:31.503Z,6.40
2018-09-13T13:30:00.399Z,6.67
2018-09-13T13:32:29.236Z,5.73
2018-09-13T13:34:58.203Z,6.20
2018-09-13T13:37:27.284Z,6.20
2018-09-13T13:39:56.213Z,6.80
2018-09-13T13:42:25.332Z,6.30
2018-09-13T13:44:54.231Z,6.13
2018-09-13T13:47:23.486Z,6.10
2018-09-13T13:49:52.394Z,6.70
2018-09-13T13:52:21.211Z,5.30
2018-09-13T13:54:50.062Z,5.73
2018-09-13T13:57:18.872Z,5.20
2018-09-13T13:59:47.850Z,5.73
2018-09-13T14:02:16.671Z,6.37
2018-09-13T14:04:45.629Z,6.50
2018-09-13T14:07:14.528Z,5.97
2018-09-13T14:09:43.639Z,5.90
2018-09-13T14:12:12.723Z,5.93
2018-09-13T14:14:41.638Z,6.43
2018-09-13T14:17:10.465Z,5.93
2018-09-13T14:19:39.306Z,5.50
2018-09-13T14:22:08.425Z,6.47
2018-09-13T14:24:37.405Z,5.63
2018-09-13T14:27:08.711Z,4.50
2018-09-13T14:29:44.040Z,3.80
2018-09-13T14:32:13.164Z,3.23
2018-09-13T14:34:42.403Z,2.87
2018-09-13T14:37:11.222Z,3.40
2018-09-13T14:39:40.019Z,2.80
2018-09-13T14:42:08.861Z,3.47
2018-09-13T14:44:37.609Z,3.90
2018-09-13T14:47:06.578Z,3.03
2018-09-13T14:49:35.461Z,4.00
2018-09-13T14:52:04.282Z,3.33
2018-09-13T14:54:33.205Z,3.43
2018-09-13T14:57:01.999Z,3.60
2018-09-13T14:59:31.175Z,3.93
2018-09-13T15:01:59.971Z,3.40
2018-09-13T15:04:28.810Z,3.70
2018-09-13T15:06:57.748Z,4.70
2018-09-13T15:09:26.525Z,6.13
2018-09-13T15:11:55.501Z,6.30
2018-09-13T15:14:24.306Z,6.67
2018-09-13T15:16:53.102Z,5.70
2018-09-13T15:19:21.917Z,5.90
2018-09-13T15:21:50.698Z,5.53
2018-09-13T15:24:19.856Z,5.53
2018-09-13T15:26:48.860Z,4.93
2018-09-13T15:29:27.836Z,4.90
2018-09-13T15:31:57.182Z,4.80
2018-09-13T15:34:26.412Z,4.53
2018-09-13T15:36:55.752Z,4.60
2018-09-13T15:39:24.530Z,4.43
2018-09-13T15:41:53.463Z,4.53
2018-09-13T15:44:22.302Z,4.83
2018-09-13T15:46:51.303Z,4.40
2018-09-13T15:49:20.114Z,4.73
2018-09-13T15:51:48.945Z,5.43
2018-09-13T15:54:17.753Z,5.40
2018-09-13T15:56:46.654Z,6.87
2018-09-13T15:59:15.852Z,6.70
2018-09-13T16:01:44.835Z,6.93
2018-09-13T16:04:13.597Z,6.93
2018-09-13T16:06:42.418Z,6.40
2018-09-13T16:09:11.243Z,7.93
2018-09-13T16:11:40.261Z,7.13
2018-09-13T16:14:09.082Z,7.17
2018-09-13T16:16:37.933Z,7.43
2018-09-13T16:19:06.846Z,7.77
2018-09-13T16:21:35.813Z,7.93
2018-09-13T16:24:04.844Z,7.87
2018-09-13T16:26:33.643Z,7.87
2018-09-13T16:29:02.448Z,7.90
2018-09-13T16:31:31.289Z,8.00
2018-09-13T16:34:00.424Z,8.20
2018-09-13T16:36:30.951Z,8.40
2018-09-13T16:39:06.598Z,8.90
2018-09-13T16:41:41.890Z,8.90
2018-09-13T16:44:14.929Z,8.30
2018-09-13T16:46:48.984Z,9.00
2018-09-13T16:49:19.827Z,8.83
2018-09-13T16:51:48.608Z,8.93
2018-09-13T16:54:17.340Z,8.10
2018-09-13T16:56:46.140Z,8.70
2018-09-13T16:59:15.070Z,8.33
2018-09-13T17:01:45.228Z,10.27
2018-09-13T17:04:14.157Z,8.83
2018-09-13T17:06:43.293Z,11.00
2018-09-13T17:09:12.058Z,9.97
2018-09-13T17:11:41.766Z,10.20
2018-09-13T17:14:10.568Z,10.37
2018-09-13T17:16:39.608Z,10.17
2018-09-13T17:19:08.663Z,11.97
2018-09-13T17:21:37.519Z,10.30
2018-09-13T17:24:06.992Z,11.50
2018-09-13T17:26:36.836Z,10.90
2018-09-13T17:29:05.713Z,13.13
2018-09-13T17:31:34.566Z,13.73
2018-09-13T17:34:03.625Z,13.57
2018-09-13T17:36:32.635Z,14.33
2018-09-13T17:39:02.104Z,16.00
2018-09-13T17:41:31.035Z,15.73
2018-09-13T17:43:59.939Z,14.97
2018-09-13T17:46:31.039Z,15.33
2018-09-13T17:49:00.160Z,13.77
2018-09-13T17:51:29.099Z,13.87
2018-09-13T17:53:57.873Z,14.97
2018-09-13T17:56:26.740Z,12.20
2018-09-13T17:58:55.585Z,13.27
2018-09-13T18:01:24.413Z,14.53
2018-09-13T18:03:53.330Z,13.07
2018-09-13T18:06:22.855Z,12.77
2018-09-13T18:08:51.659Z,15.57
2018-09-13T18:11:20.499Z,15.20
2018-09-13T18:13:49.727Z,16.87
2018-09-13T18:16:18.721Z,19.00
2018-09-13T18:18:49.252Z,16.40
2018-09-13T18:21:18.168Z,17.33
2018-09-13T18:23:47.052Z,17.07
2018-09-13T18:26:15.985Z,13.40
2018-09-13T18:28:44.913Z,12.40
2018-09-13T18:31:13.958Z,14.43
2018-09-13T18:33:49.198Z,14.60
2018-09-13T18:36:26.568Z,14.70
2018-09-13T18:39:01.319Z,17.83
2018-09-13T18:41:30.459Z,17.60
2018-09-13T18:43:59.522Z,16.80
2018-09-13T18:46:28.566Z,17.60
2018-09-13T18:48:57.452Z,17.03
2018-09-13T18:51:26.469Z,13.73
2018-09-13T18:53:55.564Z,15.13
2018-09-13T18:56:24.563Z,15.60
2018-09-13T18:58:53.495Z,15.17
2018-09-13T19:01:22.549Z,15.20
2018-09-13T19:03:51.805Z,15.63
2018-09-13T19:06:21.071Z,14.73
2018-09-13T19:08:50.264Z,15.43
2018-09-13T19:11:19.199Z,14.33
2018-09-13T19:13:48.192Z,15.90
2018-09-13T19:16:17.215Z,15.63
2018-09-13T19:18:46.555Z,15.60
2018-09-13T19:21:15.716Z,16.90
2018-09-13T19:23:44.715Z,19.13
2018-09-13T19:26:13.563Z,17.37
2018-09-13T19:28:42.530Z,18.30
2018-09-13T19:31:12.110Z,17.20
2018-09-13T19:33:41.127Z,18.17
2018-09-13T19:36:10.121Z,18.30
2018-09-13T19:38:39.435Z,17.23
2018-09-13T19:41:08.559Z,17.10
2018-09-13T19:43:37.818Z,17.00
2018-09-13T19:46:06.805Z,17.60
2018-09-13T19:48:35.872Z,18.20
2018-09-13T19:51:05.100Z,16.30
2018-09-13T19:53:34.323Z,15.40
2018-09-13T19:56:03.443Z,16.20
2018-09-13T19:58:32.407Z,19.47
2018-09-13T20:01:01.197Z,19.23
2018-09-13T20:03:30.370Z,17.83
2018-09-13T20:05:59.831Z,18.20
2018-09-13T20:08:29.602Z,20.47
2018-09-13T20:10:59.090Z,20.03
2018-09-13T20:13:28.880Z,21.37
2018-09-13T20:15:58.601Z,19.97
2018-09-13T20:18:28.666Z,21.33
2018-09-13T20:20:58.631Z,22.17
2018-09-13T20:23:27.962Z,21.90
2018-09-13T20:25:58.036Z,22.43
2018-09-13T20:28:27.589Z,22.30
2018-09-13T20:30:57.458Z,23.60
2018-09-13T20:33:27.166Z,24.77
2018-09-13T20:35:56.573Z,24.93
2018-09-13T20:38:25.481Z,23.20
2018-09-13T20:40:54.391Z,26.30
2018-09-13T20:43:23.211Z,26.20
2018-09-13T20:45:52.102Z,27.10
2018-09-13T20:48:21.179Z,26.67
2018-09-13T20:50:50.263Z,27.37
2018-09-13T20:53:20.412Z,27.80
2018-09-13T20:55:50.385Z,25.37
2018-09-13T20:58:20.126Z,25.73
2018-09-13T21:00:50.439Z,28.90
2018-09-13T21:03:22.648Z,26.97
2018-09-13T21:05:51.568Z,27.37
2018-09-13T21:08:21.301Z,26.10
2018-09-13T21:10:55.469Z,26.57
2018-09-13T21:13:24.716Z,26.60
2018-09-13T21:15:55.920Z,25.70
2018-09-13T21:18:30.951Z,24.97
2018-09-13T21:20:59.963Z,25.30
2018-09-13T21:23:29.980Z,25.33
2018-09-13T21:26:00.367Z,24.27
2018-09-13T21:28:29.707Z,23.00
2018-09-13T21:30:59.886Z,22.70
2018-09-13T21:33:30.421Z,23.47
2018-09-13T21:35:59.475Z,23.13
2018-09-13T21:38:28.786Z,23.60
2018-09-13T21:40:58.127Z,24.30
2018-09-13T21:43:26.872Z,24.57
2018-09-13T21:45:55.697Z,23.60
2018-09-13T21:48:24.486Z,21.20
2018-09-13T21:50:54.013Z,23.47
2018-09-13T21:53:23.720Z,23.37
2018-09-13T21:55:52.859Z,24.57
2018-09-13T21:58:22.363Z,23.10
2018-09-13T22:00:52.373Z,22.70
2018-09-13T22:03:22.292Z,21.77
2018-09-13T22:05:51.776Z,23.37
2018-09-13T22:08:21.667Z,22.00
2018-09-13T22:10:51.240Z,22.00
2018-09-13T22:13:21.145Z,24.73
2018-09-13T22:15:50.149Z,24.20
2018-09-13T22:18:18.984Z,26.47
2018-09-13T22:20:47.783Z,27.80
2018-09-13T22:23:16.514Z,24.70
2018-09-13T22:25:45.414Z,27.30
2018-09-13T22:28:14.304Z,25.97
2018-09-13T22:30:43.169Z,29.17
2018-09-13T22:33:12.296Z,29.30
2018-09-13T22:35:41.164Z,30.90
2018-09-13T22:38:09.879Z,27.20
2018-09-13T22:40:38.784Z,28.40
2018-09-13T22:43:07.742Z,27.77
2018-09-13T22:45:36.533Z,26.27
2018-09-13T22:48:05.416Z,24.23
2018-09-13T22:50:34.314Z,21.60
2018-09-13T22:53:03.547Z,22.63
2018-09-13T22:55:32.499Z,23.97
2018-09-13T22:58:01.246Z,22.13
2018-09-13T23:00:29.982Z,20.90
2018-09-13T23:02:58.746Z,19.70
2018-09-13T23:05:27.813Z,19.80
2018-09-13T23:07:56.582Z,21.47
2018-09-13T23:10:25.373Z,21.70
2018-09-13T23:12:54.114Z,18.63
2018-09-13T23:15:22.894Z,21.97
2018-09-13T23:17:51.807Z,19.93
2018-09-13T23:20:20.582Z,19.00
2018-09-13T23:22:49.288Z,16.73
2018-09-13T23:25:18.072Z,18.93
2018-09-13T23:27:46.903Z,15.47
2018-09-13T23:30:15.774Z,16.13
2018-09-13T23:32:44.594Z,16.00
2018-09-13T23:35:13.354Z,16.30
2018-09-13T23:37:42.101Z,17.47
2018-09-13T23:40:10.950Z,19.03
2018-09-13T23:42:40.140Z,16.93
2018-09-13T23:45:09.140Z,13.50
2018-09-13T23:47:37.900Z,13.63
2018-09-13T23:50:06.738Z,12.97
2018-09-13T23:52:35.683Z,9.80
2018-09-13T23:55:04.999Z,10.00
2018-09-13T23:57:33.811Z,10.03
